Weather History for Bogalusa, LA

Change the Weather History Date:

Saturday, April 5, 2014

  Actual Average Record
Temperature  
Mean Temperature 64 °F -  
Max Temperature 67 °F 74 °F 68 °F (2013)
Min Temperature 59 °F 50 °F 46 °F (2013)
Degree Days  
Heating Degree Days 2    
Growing Degree Days 14 (Base 50)    
Moisture  
Dew Point 48 °F    
Average Humidity 60    
Maximum Humidity 84    
Minimum Humidity 42    
Precipitation  
Precipitation 0.01 in - - ()
Sea Level Pressure  
Sea Level Pressure 30.04 in    
Wind  
Wind Speed 7 mph (NE)    
Max Wind Speed 12 mph    
Max Gust Speed 18 mph    
Visibility 10 miles    
Events Rain , Thunderstorm    
Averages and records for this station are not official NWS values.
T = Trace of Precipitation, MM = Missing Value Source: NWS Daily Summary

Daily Weather History Graph

Daily Weather History Graph

Search for Another Location

Airport:

Trip Planner

Search our weather history database for the weather conditions in past years. The results will help you decide how hot, cold, wet, or windy it might be!

Date:

Astronomy

Apr. 05, 2014 Rise Set
Actual Time 6:43 AM CDT 7:21 PM CDT
Civil Twilight 6:19 AM CDT 7:45 PM CDT
Nautical Twilight 5:50 AM CDT 8:14 PM CDT
Astronomical Twilight 5:21 AM CDT 8:43 PM CDT
Moon 11:05 AM CDT (4/5) 12:17 AM CDT (4/5)
Length of Visible Light 13h 26m
Length of Day
12h 37m
Waxing Crescent, 34% of the Moon is Illuminated
Apr 5
Waxing Crescent
Apr 7
First Quarter
Apr 15
Full
Apr 22
Last Quarter
Apr 29
New

Hourly Weather History & Observations

Time (CDT) Temp. Dew Point Humidity Pressure Visibility Wind Dir Wind Speed Gust Speed Precip Events Conditions
12:15 AM 68.0 °F 59.0 °F 73% 30.03 in 10.0 mi NNE 8.1 mph - N/A   Overcast
12:35 AM 68.0 °F 58.8 °F 72% 30.04 in 10.0 mi NNE 9.2 mph - N/A   Overcast
12:55 AM 67.3 °F 58.5 °F 73% 30.04 in 10.0 mi NNE 9.2 mph - N/A   Unknown
1:15 AM 66.4 °F 57.2 °F 72% 30.03 in 10.0 mi North 8.1 mph - N/A   Unknown
1:35 AM 65.7 °F 54.9 °F 68% 30.03 in 10.0 mi NNE 5.8 mph - N/A   Unknown
1:55 AM 65.3 °F 51.8 °F 62% 30.03 in 10.0 mi NNE 11.5 mph - N/A   Unknown
2:15 AM 64.6 °F 51.3 °F 62% 30.03 in 10.0 mi NNE 11.5 mph - N/A   Unknown
2:35 AM 64.4 °F 51.3 °F 62% 30.03 in 10.0 mi NE 9.2 mph - N/A   Unknown
2:55 AM 63.9 °F 51.3 °F 64% 30.03 in 10.0 mi NNE 5.8 mph - N/A   Unknown
3:15 AM 63.5 °F 50.9 °F 63% 30.04 in 10.0 mi NE 8.1 mph - N/A   Unknown
3:35 AM 63.5 °F 50.9 °F 63% 30.03 in 10.0 mi NNE 8.1 mph - N/A   Overcast
3:55 AM 63.0 °F 50.0 °F 63% 30.02 in 10.0 mi NNE 8.1 mph - N/A   Overcast
4:15 AM 62.6 °F 50.0 °F 63% 30.02 in 10.0 mi NNE 6.9 mph - N/A   Overcast
4:35 AM 62.4 °F 49.3 °F 62% 30.03 in 10.0 mi NNE 6.9 mph - N/A   Overcast
4:55 AM 62.1 °F 48.0 °F 60% 30.02 in 10.0 mi NE 8.1 mph 17.3 mph N/A   Overcast
5:15 AM 61.7 °F 48.2 °F 61% 30.02 in 10.0 mi NNE 10.4 mph 16.1 mph N/A   Mostly Cloudy
5:35 AM 61.3 °F 48.4 °F 62% 30.03 in 10.0 mi NNE 6.9 mph - N/A   Overcast
5:55 AM 61.0 °F 47.7 °F 62% 30.03 in 10.0 mi NNE 11.5 mph - N/A   Overcast
6:15 AM 60.4 °F 47.3 °F 62% 30.04 in 10.0 mi NNE 9.2 mph - N/A   Overcast
6:35 AM 60.3 °F 46.2 °F 60% 30.04 in 10.0 mi NNE 9.2 mph - N/A   Scattered Clouds
6:55 AM 59.9 °F 45.1 °F 58% 30.05 in 10.0 mi NNE 10.4 mph 18.4 mph N/A   Clear
7:15 AM 59.9 °F 45.1 °F 58% 30.06 in 10.0 mi NE 6.9 mph - N/A   Unknown
7:35 AM 59.5 °F 44.8 °F 58% 30.06 in 10.0 mi NE 6.9 mph - N/A   Unknown
7:55 AM 59.5 °F 44.1 °F 57% 30.07 in 10.0 mi NNE 8.1 mph - N/A   Unknown
8:15 AM 59.5 °F 43.7 °F 56% 30.08 in 10.0 mi NE 8.1 mph 16.1 mph N/A   Unknown
8:35 AM 59.7 °F 43.5 °F 55% 30.09 in 10.0 mi NNE 10.4 mph 18.4 mph N/A   Overcast
8:55 AM 59.9 °F 43.3 °F 54% 30.08 in 10.0 mi NE 11.5 mph - N/A   Overcast
9:15 AM 60.3 °F 43.0 °F 53% 30.09 in 10.0 mi NE 9.2 mph - N/A   Overcast
9:35 AM 60.3 °F 41.9 °F 51% 30.09 in 10.0 mi NE 10.4 mph - N/A   Overcast
9:55 AM 60.4 °F 41.9 °F 50% 30.10 in 10.0 mi NE 8.1 mph - N/A   Overcast
10:15 AM 61.7 °F 42.3 °F 49% 30.10 in 10.0 mi ENE 8.1 mph - N/A   Overcast
10:35 AM 62.1 °F 41.4 °F 47% 30.11 in - NE 9.2 mph 17.3 mph N/A   Overcast
10:55 AM 62.4 °F 41.4 °F 46% 30.11 in - NE 11.5 mph 16.1 mph N/A   Overcast
11:15 AM 63.5 °F 43.2 °F 47% 30.10 in - NE 10.4 mph - N/A   Overcast
11:35 AM 64.0 °F 41.9 °F 44% 30.11 in - NE 4.6 mph - N/A   Overcast
11:55 AM 63.5 °F 41.9 °F 45% 30.10 in - NNE 10.4 mph - N/A   Overcast
12:15 PM 63.5 °F 42.4 °F 46% 30.10 in - NNE 9.2 mph - N/A   Overcast
12:35 PM 62.8 °F 42.1 °F 47% 30.10 in - NE 6.9 mph - N/A   Overcast
12:55 PM 63.5 °F 42.3 °F 46% 30.09 in - NE 5.8 mph - N/A   Overcast
1:15 PM 64.6 °F 42.8 °F 45% 30.09 in - ENE 6.9 mph - N/A   Overcast
1:35 PM 65.3 °F 43.3 °F 45% 30.08 in - ENE 5.8 mph - N/A   Overcast
1:55 PM 65.3 °F 42.1 °F 43% 30.07 in - NE 6.9 mph - N/A   Overcast
2:15 PM 66.0 °F 43.0 °F 43% 30.06 in - East 5.8 mph - N/A   Overcast
2:35 PM 67.1 °F 43.5 °F 42% 30.05 in 10.0 mi East 3.5 mph - N/A   Overcast
2:55 PM 66.7 °F 43.3 °F 43% 30.03 in 10.0 mi East 5.8 mph - N/A   Overcast
3:15 PM 67.1 °F 44.1 °F 43% 30.03 in 10.0 mi East 4.6 mph - N/A   Overcast
3:35 PM 66.7 °F 44.6 °F 45% 30.03 in 10.0 mi SE 3.5 mph - N/A   Overcast
3:55 PM 66.4 °F 45.9 °F 48% 30.02 in 10.0 mi SSE 4.6 mph - N/A   Overcast
4:15 PM 65.5 °F 46.4 °F 50% 30.03 in 10.0 mi SE 3.5 mph - N/A   Overcast
4:35 PM 65.3 °F 46.8 °F 51% 30.03 in 10.0 mi SSE 3.5 mph - N/A   Overcast
4:55 PM 64.9 °F 47.1 °F 52% 30.03 in 10.0 mi SSE 4.6 mph - N/A   Overcast
5:15 PM 64.4 °F 47.8 °F 55% 30.02 in 10.0 mi Calm Calm - N/A   Overcast
5:35 PM 64.9 °F 48.4 °F 55% 30.01 in 10.0 mi East 4.6 mph - N/A   Overcast
5:55 PM 64.6 °F 48.2 °F 55% 30.01 in 10.0 mi ENE 3.5 mph - N/A   Overcast
6:15 PM 64.8 °F 48.7 °F 56% 30.00 in 10.0 mi Calm Calm - N/A   Overcast
6:35 PM 64.6 °F 49.1 °F 57% 30.00 in 10.0 mi East 3.5 mph - N/A Thunderstorm Overcast
6:55 PM 64.4 °F 49.3 °F 58% 30.01 in 10.0 mi Calm Calm - N/A   Overcast
7:15 PM 63.7 °F 51.8 °F 65% 30.02 in 10.0 mi Calm Calm - N/A   Overcast
7:35 PM 63.3 °F 52.0 °F 66% 30.01 in 10.0 mi NNE 5.8 mph - N/A Rain Light Rain
7:55 PM 60.8 °F 52.9 °F 75% 29.99 in 10.0 mi ENE 4.6 mph - 0.01 in Rain Rain
8:15 PM 59.9 °F 53.6 °F 80% 29.98 in 10.0 mi ESE 4.6 mph - N/A Rain Light Rain
8:35 PM 60.1 °F 54.5 °F 82% 30.02 in 10.0 mi SW 5.8 mph - N/A   Mostly Cloudy
8:55 PM 60.3 °F 54.9 °F 82% 30.02 in 10.0 mi SSW 3.5 mph - N/A   Overcast
9:15 PM 60.1 °F 54.9 °F 83% 30.01 in 10.0 mi NNE 3.5 mph - N/A   Overcast
9:35 PM 59.5 °F 54.7 °F 84% 30.01 in 10.0 mi ENE 3.5 mph - N/A Thunderstorm Thunderstorm
9:55 PM 60.3 °F 54.0 °F 80% 30.03 in 10.0 mi Calm Calm - N/A Thunderstorm Overcast
10:15 PM 59.9 °F 54.0 °F 81% 30.01 in 10.0 mi East 4.6 mph - N/A   Overcast
10:35 PM 59.9 °F 53.6 °F 80% 30.02 in 10.0 mi Calm Calm - N/A   Overcast
10:55 PM 59.9 °F 54.5 °F 82% 30.03 in 10.0 mi Calm Calm - N/A   Overcast
11:15 PM 60.3 °F 53.6 °F 79% 30.02 in 10.0 mi Calm Calm - N/A   Overcast
11:35 PM 59.9 °F 53.8 °F 80% 30.00 in 10.0 mi Calm Calm - N/A   Overcast
11:55 PM 60.1 °F 53.8 °F 80% 30.00 in 10.0 mi Calm Calm - N/A   Overcast